sensor_id;sensor_type;location;lat;lon;timestamp;temperature;humidity
39777;DHT22;25453;48.162;14.510;2023-03-23T00:01:48;12.70;61.40
39777;DHT22;25453;48.162;14.510;2023-03-23T00:04:17;12.80;61.60
39777;DHT22;25453;48.162;14.510;2023-03-23T00:06:44;12.90;61.50
39777;DHT22;25453;48.162;14.510;2023-03-23T00:09:14;12.90;61.30
39777;DHT22;25453;48.162;14.510;2023-03-23T00:11:40;12.90;60.90
39777;DHT22;25453;48.162;14.510;2023-03-23T00:14:07;12.80;60.70
39777;DHT22;25453;48.162;14.510;2023-03-23T00:16:39;12.70;60.70
39777;DHT22;25453;48.162;14.510;2023-03-23T00:19:10;12.60;60.70
39777;DHT22;25453;48.162;14.510;2023-03-23T00:21:39;12.50;61.00
39777;DHT22;25453;48.162;14.510;2023-03-23T00:24:06;12.40;61.30
39777;DHT22;25453;48.162;14.510;2023-03-23T00:26:32;12.40;61.70
39777;DHT22;25453;48.162;14.510;2023-03-23T00:29:00;12.40;61.90
39777;DHT22;25453;48.162;14.510;2023-03-23T00:31:26;12.50;62.00
39777;DHT22;25453;48.162;14.510;2023-03-23T00:33:57;12.50;61.90
39777;DHT22;25453;48.162;14.510;2023-03-23T00:36:24;12.50;62.00
39777;DHT22;25453;48.162;14.510;2023-03-23T00:38:49;12.40;61.70
39777;DHT22;25453;48.162;14.510;2023-03-23T00:41:15;12.40;61.60
39777;DHT22;25453;48.162;14.510;2023-03-23T00:43:41;12.40;61.70
39777;DHT22;25453;48.162;14.510;2023-03-23T00:46:07;12.40;62.10
39777;DHT22;25453;48.162;14.510;2023-03-23T00:48:35;12.40;61.80
39777;DHT22;25453;48.162;14.510;2023-03-23T00:51:02;12.40;61.70
39777;DHT22;25453;48.162;14.510;2023-03-23T00:53:32;12.30;61.80
39777;DHT22;25453;48.162;14.510;2023-03-23T00:55:57;12.30;61.90
39777;DHT22;25453;48.162;14.510;2023-03-23T00:58:23;12.30;61.80
39777;DHT22;25453;48.162;14.510;2023-03-23T01:00:49;12.20;61.80
39777;DHT22;25453;48.162;14.510;2023-03-23T01:03:15;12.20;62.00
39777;DHT22;25453;48.162;14.510;2023-03-23T01:05:44;12.10;62.10
39777;DHT22;25453;48.162;14.510;2023-03-23T01:08:12;12.10;62.00
39777;DHT22;25453;48.162;14.510;2023-03-23T01:10:39;12.10;61.90
39777;DHT22;25453;48.162;14.510;2023-03-23T01:13:05;12.00;61.90
39777;DHT22;25453;48.162;14.510;2023-03-23T01:15:32;12.00;62.20
39777;DHT22;25453;48.162;14.510;2023-03-23T01:17:57;12.00;62.40
39777;DHT22;25453;48.162;14.510;2023-03-23T01:20:23;12.00;62.10
39777;DHT22;25453;48.162;14.510;2023-03-23T01:22:50;12.00;62.30
39777;DHT22;25453;48.162;14.510;2023-03-23T01:25:15;12.00;62.30
39777;DHT22;25453;48.162;14.510;2023-03-23T01:27:41;11.90;62.40
39777;DHT22;25453;48.162;14.510;2023-03-23T01:30:08;11.90;62.50
39777;DHT22;25453;48.162;14.510;2023-03-23T01:32:35;11.90;62.50
39777;DHT22;25453;48.162;14.510;2023-03-23T01:35:01;11.90;62.70
39777;DHT22;25453;48.162;14.510;2023-03-23T01:37:27;11.90;62.50
39777;DHT22;25453;48.162;14.510;2023-03-23T01:39:53;11.90;62.60
39777;DHT22;25453;48.162;14.510;2023-03-23T01:42:29;11.90;62.90
39777;DHT22;25453;48.162;14.510;2023-03-23T01:45:38;12.00;62.70
39777;DHT22;25453;48.162;14.510;2023-03-23T01:48:07;11.90;62.40
39777;DHT22;25453;48.162;14.510;2023-03-23T01:50:33;12.00;62.40
39777;DHT22;25453;48.162;14.510;2023-03-23T01:53:00;12.00;62.40
39777;DHT22;25453;48.162;14.510;2023-03-23T01:55:27;11.90;62.20
39777;DHT22;25453;48.162;14.510;2023-03-23T01:57:54;11.90;61.90
39777;DHT22;25453;48.162;14.510;2023-03-23T02:00:21;11.80;61.90
39777;DHT22;25453;48.162;14.510;2023-03-23T02:02:48;11.70;61.90
39777;DHT22;25453;48.162;14.510;2023-03-23T02:05:24;11.60;61.90
39777;DHT22;25453;48.162;14.510;2023-03-23T02:07:51;11.50;62.00
39777;DHT22;25453;48.162;14.510;2023-03-23T02:10:17;11.40;62.30
39777;DHT22;25453;48.162;14.510;2023-03-23T02:12:43;11.40;62.50
39777;DHT22;25453;48.162;14.510;2023-03-23T02:15:09;11.40;62.40
39777;DHT22;25453;48.162;14.510;2023-03-23T02:22:35;11.30;62.70
39777;DHT22;25453;48.162;14.510;2023-03-23T02:35:30;11.30;63.20
39777;DHT22;25453;48.162;14.510;2023-03-23T02:38:01;11.30;63.10
39777;DHT22;25453;48.162;14.510;2023-03-23T02:40:49;11.40;63.50
39777;DHT22;25453;48.162;14.510;2023-03-23T02:43:15;11.40;63.00
39777;DHT22;25453;48.162;14.510;2023-03-23T02:45:44;11.40;63.10
39777;DHT22;25453;48.162;14.510;2023-03-23T02:48:11;11.40;63.30
39777;DHT22;25453;48.162;14.510;2023-03-23T02:50:38;11.40;62.90
39777;DHT22;25453;48.162;14.510;2023-03-23T02:53:07;11.50;63.10
39777;DHT22;25453;48.162;14.510;2023-03-23T02:55:33;11.50;62.80
39777;DHT22;25453;48.162;14.510;2023-03-23T02:58:00;11.40;62.80
39777;DHT22;25453;48.162;14.510;2023-03-23T03:00:27;11.40;62.70
39777;DHT22;25453;48.162;14.510;2023-03-23T03:02:53;11.40;62.80
39777;DHT22;25453;48.162;14.510;2023-03-23T03:08:04;11.40;62.60
39777;DHT22;25453;48.162;14.510;2023-03-23T03:11:17;11.30;62.70
39777;DHT22;25453;48.162;14.510;2023-03-23T03:16:07;11.20;62.50
39777;DHT22;25453;48.162;14.510;2023-03-23T03:18:39;11.10;62.50
39777;DHT22;25453;48.162;14.510;2023-03-23T03:21:07;11.10;62.60
39777;DHT22;25453;48.162;14.510;2023-03-23T03:23:36;11.10;62.80
39777;DHT22;25453;48.162;14.510;2023-03-23T03:26:03;11.10;62.50
39777;DHT22;25453;48.162;14.510;2023-03-23T03:28:30;11.00;62.50
39777;DHT22;25453;48.162;14.510;2023-03-23T03:30:57;11.00;62.40
39777;DHT22;25453;48.162;14.510;2023-03-23T03:33:26;11.00;62.50
39777;DHT22;25453;48.162;14.510;2023-03-23T03:35:53;11.00;62.90
39777;DHT22;25453;48.162;14.510;2023-03-23T03:38:20;11.00;62.70
39777;DHT22;25453;48.162;14.510;2023-03-23T03:40:46;11.00;62.80
39777;DHT22;25453;48.162;14.510;2023-03-23T03:43:11;11.00;63.10
39777;DHT22;25453;48.162;14.510;2023-03-23T03:45:37;11.10;62.70
39777;DHT22;25453;48.162;14.510;2023-03-23T03:48:03;11.00;62.60
39777;DHT22;25453;48.162;14.510;2023-03-23T03:50:29;11.00;62.60
39777;DHT22;25453;48.162;14.510;2023-03-23T03:52:55;11.00;62.70
39777;DHT22;25453;48.162;14.510;2023-03-23T03:55:21;11.00;62.80
39777;DHT22;25453;48.162;14.510;2023-03-23T03:57:47;10.90;62.90
39777;DHT22;25453;48.162;14.510;2023-03-23T04:00:13;11.00;63.30
39777;DHT22;25453;48.162;14.510;2023-03-23T04:02:44;11.00;63.30
39777;DHT22;25453;48.162;14.510;2023-03-23T04:05:12;11.00;63.50
39777;DHT22;25453;48.162;14.510;2023-03-23T04:07:38;11.00;63.30
39777;DHT22;25453;48.162;14.510;2023-03-23T04:10:05;11.00;63.30
39777;DHT22;25453;48.162;14.510;2023-03-23T04:12:32;11.10;63.40
39777;DHT22;25453;48.162;14.510;2023-03-23T04:14:58;11.10;63.20
39777;DHT22;25453;48.162;14.510;2023-03-23T04:17:24;11.10;63.20
39777;DHT22;25453;48.162;14.510;2023-03-23T04:19:52;11.10;63.20
39777;DHT22;25453;48.162;14.510;2023-03-23T04:22:18;11.10;63.40
39777;DHT22;25453;48.162;14.510;2023-03-23T04:24:44;11.10;63.60
39777;DHT22;25453;48.162;14.510;2023-03-23T04:27:10;11.10;63.20
39777;DHT22;25453;48.162;14.510;2023-03-23T04:29:38;11.10;63.00
39777;DHT22;25453;48.162;14.510;2023-03-23T04:32:04;11.10;63.30
39777;DHT22;25453;48.162;14.510;2023-03-23T04:34:30;11.10;63.10
39777;DHT22;25453;48.162;14.510;2023-03-23T04:36:58;11.10;63.20
39777;DHT22;25453;48.162;14.510;2023-03-23T04:39:24;11.10;62.90
39777;DHT22;25453;48.162;14.510;2023-03-23T04:41:49;11.10;63.00
39777;DHT22;25453;48.162;14.510;2023-03-23T04:44:16;11.10;63.00
39777;DHT22;25453;48.162;14.510;2023-03-23T04:46:43;11.00;63.00
39777;DHT22;25453;48.162;14.510;2023-03-23T04:49:10;10.90;62.90
39777;DHT22;25453;48.162;14.510;2023-03-23T04:51:36;10.90;62.90
39777;DHT22;25453;48.162;14.510;2023-03-23T04:54:04;10.80;63.20
39777;DHT22;25453;48.162;14.510;2023-03-23T04:56:30;10.80;63.40
39777;DHT22;25453;48.162;14.510;2023-03-23T04:58:56;10.80;63.50
39777;DHT22;25453;48.162;14.510;2023-03-23T05:01:21;10.80;63.40
39777;DHT22;25453;48.162;14.510;2023-03-23T05:03:47;10.80;63.40
39777;DHT22;25453;48.162;14.510;2023-03-23T05:06:13;10.80;63.50
39777;DHT22;25453;48.162;14.510;2023-03-23T05:08:39;10.70;63.70
39777;DHT22;25453;48.162;14.510;2023-03-23T05:11:05;10.70;63.70
39777;DHT22;25453;48.162;14.510;2023-03-23T05:13:31;10.70;63.90
39777;DHT22;25453;48.162;14.510;2023-03-23T05:15:57;10.80;63.90
39777;DHT22;25453;48.162;14.510;2023-03-23T05:18:23;10.80;64.10
39777;DHT22;25453;48.162;14.510;2023-03-23T05:20:50;10.90;64.00
39777;DHT22;25453;48.162;14.510;2023-03-23T05:23:18;10.90;63.80
39777;DHT22;25453;48.162;14.510;2023-03-23T05:25:52;10.80;63.70
39777;DHT22;25453;48.162;14.510;2023-03-23T05:28:18;10.80;64.00
39777;DHT22;25453;48.162;14.510;2023-03-23T05:30:44;10.80;64.10
39777;DHT22;25453;48.162;14.510;2023-03-23T05:33:10;10.80;64.10
39777;DHT22;25453;48.162;14.510;2023-03-23T05:35:36;10.80;64.20
39777;DHT22;25453;48.162;14.510;2023-03-23T05:38:01;10.80;64.30
39777;DHT22;25453;48.162;14.510;2023-03-23T05:40:28;10.90;64.50
39777;DHT22;25453;48.162;14.510;2023-03-23T05:42:55;10.90;64.50
39777;DHT22;25453;48.162;14.510;2023-03-23T05:45:24;10.90;64.60
39777;DHT22;25453;48.162;14.510;2023-03-23T05:47:50;11.00;64.60
39777;DHT22;25453;48.162;14.510;2023-03-23T05:50:16;11.00;64.60
39777;DHT22;25453;48.162;14.510;2023-03-23T05:52:43;11.10;64.60
39777;DHT22;25453;48.162;14.510;2023-03-23T05:55:09;11.10;64.50
39777;DHT22;25453;48.162;14.510;2023-03-23T05:57:35;11.10;64.40
39777;DHT22;25453;48.162;14.510;2023-03-23T06:00:01;11.10;64.30
39777;DHT22;25453;48.162;14.510;2023-03-23T06:02:37;11.10;64.40
39777;DHT22;25453;48.162;14.510;2023-03-23T06:05:03;11.10;64.60
39777;DHT22;25453;48.162;14.510;2023-03-23T06:07:29;11.10;64.50
39777;DHT22;25453;48.162;14.510;2023-03-23T06:09:54;11.10;64.50
39777;DHT22;25453;48.162;14.510;2023-03-23T06:12:20;11.10;64.50
39777;DHT22;25453;48.162;14.510;2023-03-23T06:14:46;11.20;64.80
39777;DHT22;25453;48.162;14.510;2023-03-23T06:17:13;11.20;65.00
39777;DHT22;25453;48.162;14.510;2023-03-23T06:19:39;11.30;65.20
39777;DHT22;25453;48.162;14.510;2023-03-23T06:22:06;11.30;65.20
39777;DHT22;25453;48.162;14.510;2023-03-23T06:24:31;11.30;65.30
39777;DHT22;25453;48.162;14.510;2023-03-23T06:26:58;11.40;65.40
39777;DHT22;25453;48.162;14.510;2023-03-23T06:29:24;11.40;65.40
39777;DHT22;25453;48.162;14.510;2023-03-23T06:31:57;11.50;65.70
39777;DHT22;25453;48.162;14.510;2023-03-23T06:34:24;11.50;65.80
39777;DHT22;25453;48.162;14.510;2023-03-23T06:36:50;11.60;65.90
39777;DHT22;25453;48.162;14.510;2023-03-23T06:39:16;11.70;66.00
39777;DHT22;25453;48.162;14.510;2023-03-23T06:41:42;11.80;66.00
39777;DHT22;25453;48.162;14.510;2023-03-23T06:44:07;11.90;66.00
39777;DHT22;25453;48.162;14.510;2023-03-23T06:46:33;12.00;66.00
39777;DHT22;25453;48.162;14.510;2023-03-23T06:48:59;12.00;65.90
39777;DHT22;25453;48.162;14.510;2023-03-23T06:51:25;12.10;65.80
39777;DHT22;25453;48.162;14.510;2023-03-23T06:53:51;12.10;65.80
39777;DHT22;25453;48.162;14.510;2023-03-23T06:56:17;12.10;65.70
39777;DHT22;25453;48.162;14.510;2023-03-23T06:58:43;12.10;65.80
39777;DHT22;25453;48.162;14.510;2023-03-23T07:01:10;12.10;65.80
39777;DHT22;25453;48.162;14.510;2023-03-23T07:03:36;12.10;65.90
39777;DHT22;25453;48.162;14.510;2023-03-23T07:06:02;12.10;66.10
39777;DHT22;25453;48.162;14.510;2023-03-23T07:08:28;12.20;66.30
39777;DHT22;25453;48.162;14.510;2023-03-23T07:10:55;12.30;66.40
39777;DHT22;25453;48.162;14.510;2023-03-23T07:13:21;12.30;66.40
39777;DHT22;25453;48.162;14.510;2023-03-23T07:15:47;12.40;66.40
39777;DHT22;25453;48.162;14.510;2023-03-23T07:18:14;12.50;66.30
39777;DHT22;25453;48.162;14.510;2023-03-23T07:20:40;12.50;66.20
39777;DHT22;25453;48.162;14.510;2023-03-23T07:23:06;12.50;66.20
39777;DHT22;25453;48.162;14.510;2023-03-23T07:25:32;12.60;66.10
39777;DHT22;25453;48.162;14.510;2023-03-23T07:28:01;12.50;66.10
39777;DHT22;25453;48.162;14.510;2023-03-23T07:30:28;12.60;66.10
39777;DHT22;25453;48.162;14.510;2023-03-23T07:32:58;12.60;66.20
39777;DHT22;25453;48.162;14.510;2023-03-23T07:35:24;12.60;66.30
39777;DHT22;25453;48.162;14.510;2023-03-23T07:37:50;12.60;66.40
39777;DHT22;25453;48.162;14.510;2023-03-23T07:40:17;12.70;66.30
39777;DHT22;25453;48.162;14.510;2023-03-23T07:42:44;12.70;66.50
39777;DHT22;25453;48.162;14.510;2023-03-23T07:45:11;12.80;66.50
39777;DHT22;25453;48.162;14.510;2023-03-23T07:47:37;12.80;66.40
39777;DHT22;25453;48.162;14.510;2023-03-23T07:50:03;12.90;66.50
39777;DHT22;25453;48.162;14.510;2023-03-23T07:52:29;13.00;66.40
39777;DHT22;25453;48.162;14.510;2023-03-23T07:54:56;13.00;66.30
39777;DHT22;25453;48.162;14.510;2023-03-23T07:57:22;13.10;65.90
39777;DHT22;25453;48.162;14.510;2023-03-23T07:59:47;13.10;65.80
39777;DHT22;25453;48.162;14.510;2023-03-23T08:02:13;13.20;66.00
39777;DHT22;25453;48.162;14.510;2023-03-23T08:04:40;13.30;65.90
39777;DHT22;25453;48.162;14.510;2023-03-23T08:07:06;13.40;65.80
39777;DHT22;25453;48.162;14.510;2023-03-23T08:09:31;13.50;65.70
39777;DHT22;25453;48.162;14.510;2023-03-23T08:11:57;13.60;65.50
39777;DHT22;25453;48.162;14.510;2023-03-23T08:14:23;13.70;65.60
39777;DHT22;25453;48.162;14.510;2023-03-23T08:16:53;13.90;65.60
39777;DHT22;25453;48.162;14.510;2023-03-23T08:19:20;14.00;65.40
39777;DHT22;25453;48.162;14.510;2023-03-23T08:21:46;14.20;65.20
39777;DHT22;25453;48.162;14.510;2023-03-23T08:24:14;14.40;65.10
39777;DHT22;25453;48.162;14.510;2023-03-23T08:26:39;14.60;64.90
39777;DHT22;25453;48.162;14.510;2023-03-23T08:29:05;14.70;64.40
39777;DHT22;25453;48.162;14.510;2023-03-23T08:31:31;14.80;63.80
39777;DHT22;25453;48.162;14.510;2023-03-23T08:34:00;14.80;63.50
39777;DHT22;25453;48.162;14.510;2023-03-23T08:36:26;14.80;63.40
39777;DHT22;25453;48.162;14.510;2023-03-23T08:38:52;14.80;63.30
39777;DHT22;25453;48.162;14.510;2023-03-23T08:41:19;14.80;63.40
39777;DHT22;25453;48.162;14.510;2023-03-23T08:43:45;14.90;63.60
39777;DHT22;25453;48.162;14.510;2023-03-23T08:46:12;15.00;63.30
39777;DHT22;25453;48.162;14.510;2023-03-23T08:48:38;15.00;63.10
39777;DHT22;25453;48.162;14.510;2023-03-23T08:51:04;15.00;62.90
39777;DHT22;25453;48.162;14.510;2023-03-23T08:53:30;15.00;63.00
39777;DHT22;25453;48.162;14.510;2023-03-23T08:56:02;15.00;63.30
39777;DHT22;25453;48.162;14.510;2023-03-23T08:58:27;15.20;63.30
39777;DHT22;25453;48.162;14.510;2023-03-23T09:00:54;15.40;63.30
39777;DHT22;25453;48.162;14.510;2023-03-23T09:03:20;15.50;63.20
39777;DHT22;25453;48.162;14.510;2023-03-23T09:05:46;15.70;63.00
39777;DHT22;25453;48.162;14.510;2023-03-23T09:08:11;15.80;62.60
39777;DHT22;25453;48.162;14.510;2023-03-23T09:10:37;16.00;62.60
39777;DHT22;25453;48.162;14.510;2023-03-23T09:13:04;16.20;62.40
39777;DHT22;25453;48.162;14.510;2023-03-23T09:15:31;16.40;62.50
39777;DHT22;25453;48.162;14.510;2023-03-23T09:17:57;16.50;62.50
39777;DHT22;25453;48.162;14.510;2023-03-23T09:20:26;16.70;62.40
39777;DHT22;25453;48.162;14.510;2023-03-23T09:22:53;16.90;62.10
39777;DHT22;25453;48.162;14.510;2023-03-23T09:25:21;17.10;61.70
39777;DHT22;25453;48.162;14.510;2023-03-23T09:27:56;17.30;61.00
39777;DHT22;25453;48.162;14.510;2023-03-23T09:30:24;17.50;60.80
39777;DHT22;25453;48.162;14.510;2023-03-23T09:32:51;17.60;59.60
39777;DHT22;25453;48.162;14.510;2023-03-23T09:35:17;17.70;59.50
39777;DHT22;25453;48.162;14.510;2023-03-23T09:37:44;17.80;59.00
39777;DHT22;25453;48.162;14.510;2023-03-23T09:40:11;17.80;58.40
39777;DHT22;25453;48.162;14.510;2023-03-23T09:50:16;17.50;56.90
39777;DHT22;25453;48.162;14.510;2023-03-23T09:53:05;17.40;56.90
39777;DHT22;25453;48.162;14.510;2023-03-23T09:55:33;17.40;57.30
39777;DHT22;25453;48.162;14.510;2023-03-23T10:00:42;17.40;57.30
39777;DHT22;25453;48.162;14.510;2023-03-23T10:08:17;17.30;57.40
39777;DHT22;25453;48.162;14.510;2023-03-23T10:13:14;17.30;58.00
39777;DHT22;25453;48.162;14.510;2023-03-23T10:15:42;17.30;58.20
39777;DHT22;25453;48.162;14.510;2023-03-23T10:18:32;17.40;58.70
39777;DHT22;25453;48.162;14.510;2023-03-23T10:20:56;17.50;58.90
39777;DHT22;25453;48.162;14.510;2023-03-23T10:28:37;17.70;58.40
39777;DHT22;25453;48.162;14.510;2023-03-23T10:31:03;17.70;58.30
39777;DHT22;25453;48.162;14.510;2023-03-23T10:33:48;17.80;58.20
39777;DHT22;25453;48.162;14.510;2023-03-23T10:38:56;17.70;57.90
39777;DHT22;25453;48.162;14.510;2023-03-23T10:41:23;17.70;57.90
39777;DHT22;25453;48.162;14.510;2023-03-23T10:43:48;17.70;58.60
39777;DHT22;25453;48.162;14.510;2023-03-23T10:48:50;18.00;59.00
39777;DHT22;25453;48.162;14.510;2023-03-23T10:51:18;18.30;58.60
39777;DHT22;25453;48.162;14.510;2023-03-23T10:53:49;18.60;58.10
39777;DHT22;25453;48.162;14.510;2023-03-23T10:56:23;18.80;57.70
39777;DHT22;25453;48.162;14.510;2023-03-23T10:58:49;19.10;57.20
39777;DHT22;25453;48.162;14.510;2023-03-23T11:01:15;19.40;56.80
39777;DHT22;25453;48.162;14.510;2023-03-23T11:03:44;19.60;56.10
39777;DHT22;25453;48.162;14.510;2023-03-23T11:06:11;19.80;54.80
39777;DHT22;25453;48.162;14.510;2023-03-23T11:08:46;20.00;54.20
39777;DHT22;25453;48.162;14.510;2023-03-23T11:11:17;20.20;53.80
39777;DHT22;25453;48.162;14.510;2023-03-23T11:13:47;20.30;53.30
39777;DHT22;25453;48.162;14.510;2023-03-23T11:16:27;20.60;53.30
39777;DHT22;25453;48.162;14.510;2023-03-23T11:18:54;20.90;52.80
39777;DHT22;25453;48.162;14.510;2023-03-23T11:21:20;21.20;52.60
39777;DHT22;25453;48.162;14.510;2023-03-23T11:23:51;21.50;52.00
39777;DHT22;25453;48.162;14.510;2023-03-23T11:26:23;21.80;51.50
39777;DHT22;25453;48.162;14.510;2023-03-23T11:31:23;22.30;50.20
39777;DHT22;25453;48.162;14.510;2023-03-23T11:33:54;22.40;49.20
39777;DHT22;25453;48.162;14.510;2023-03-23T11:36:20;22.60;48.40
39777;DHT22;25453;48.162;14.510;2023-03-23T11:38:52;22.70;47.80
39777;DHT22;25453;48.162;14.510;2023-03-23T11:41:21;22.80;47.20
39777;DHT22;25453;48.162;14.510;2023-03-23T11:43:47;22.90;46.70
39777;DHT22;25453;48.162;14.510;2023-03-23T11:46:20;23.00;46.20
39777;DHT22;25453;48.162;14.510;2023-03-23T11:48:53;23.10;45.60
39777;DHT22;25453;48.162;14.510;2023-03-23T11:51:31;23.30;45.30
39777;DHT22;25453;48.162;14.510;2023-03-23T11:56:41;23.60;44.40
39777;DHT22;25453;48.162;14.510;2023-03-23T11:59:12;23.70;44.20
39777;DHT22;25453;48.162;14.510;2023-03-23T12:01:43;23.80;44.10
39777;DHT22;25453;48.162;14.510;2023-03-23T12:09:11;23.70;43.50
39777;DHT22;25453;48.162;14.510;2023-03-23T12:16:53;23.50;42.40
39777;DHT22;25453;48.162;14.510;2023-03-23T12:27:42;23.30;43.60
39777;DHT22;25453;48.162;14.510;2023-03-23T12:40:35;23.40;43.90
39777;DHT22;25453;48.162;14.510;2023-03-23T12:43:25;23.50;44.30
39777;DHT22;25453;48.162;14.510;2023-03-23T12:48:37;23.60;44.10
39777;DHT22;25453;48.162;14.510;2023-03-23T12:51:14;23.60;44.10
39777;DHT22;25453;48.162;14.510;2023-03-23T12:53:50;23.60;44.30
39777;DHT22;25453;48.162;14.510;2023-03-23T12:58:53;23.50;44.50
39777;DHT22;25453;48.162;14.510;2023-03-23T13:01:26;23.50;44.40
39777;DHT22;25453;48.162;14.510;2023-03-23T13:03:56;23.60;44.60
39777;DHT22;25453;48.162;14.510;2023-03-23T13:11:30;23.50;44.50
39777;DHT22;25453;48.162;14.510;2023-03-23T13:16:55;23.40;43.90
39777;DHT22;25453;48.162;14.510;2023-03-23T13:21:53;23.10;43.50
39777;DHT22;25453;48.162;14.510;2023-03-23T13:24:23;23.10;43.50
39777;DHT22;25453;48.162;14.510;2023-03-23T13:26:52;23.10;43.70
39777;DHT22;25453;48.162;14.510;2023-03-23T13:29:25;23.10;43.80
39777;DHT22;25453;48.162;14.510;2023-03-23T13:34:52;23.10;43.60
39777;DHT22;25453;48.162;14.510;2023-03-23T13:37:20;23.10;43.40
39777;DHT22;25453;48.162;14.510;2023-03-23T13:39:56;23.10;43.20
39777;DHT22;25453;48.162;14.510;2023-03-23T13:42:25;23.10;43.00
39777;DHT22;25453;48.162;14.510;2023-03-23T13:49:53;22.80;42.90
39777;DHT22;25453;48.162;14.510;2023-03-23T13:54:46;22.60;43.00
39777;DHT22;25453;48.162;14.510;2023-03-23T13:59:48;22.50;43.30
39777;DHT22;25453;48.162;14.510;2023-03-23T14:02:33;22.50;43.10
39777;DHT22;25453;48.162;14.510;2023-03-23T14:05:11;22.40;42.80
39777;DHT22;25453;48.162;14.510;2023-03-23T14:07:54;22.30;42.90
39777;DHT22;25453;48.162;14.510;2023-03-23T14:10:21;22.10;43.10
39777;DHT22;25453;48.162;14.510;2023-03-23T14:12:48;22.00;43.20
39777;DHT22;25453;48.162;14.510;2023-03-23T14:15:16;21.90;43.30
39777;DHT22;25453;48.162;14.510;2023-03-23T14:17:43;21.80;43.60
39777;DHT22;25453;48.162;14.510;2023-03-23T14:20:15;21.70;43.80
39777;DHT22;25453;48.162;14.510;2023-03-23T14:22:44;21.60;43.70
39777;DHT22;25453;48.162;14.510;2023-03-23T14:25:17;21.50;43.70
39777;DHT22;25453;48.162;14.510;2023-03-23T14:27:44;21.40;43.90
39777;DHT22;25453;48.162;14.510;2023-03-23T14:30:21;21.30;44.10
39777;DHT22;25453;48.162;14.510;2023-03-23T14:32:47;21.20;44.10
39777;DHT22;25453;48.162;14.510;2023-03-23T14:35:24;21.20;44.20
39777;DHT22;25453;48.162;14.510;2023-03-23T14:37:51;21.10;44.20
39777;DHT22;25453;48.162;14.510;2023-03-23T14:40:17;21.00;44.20
39777;DHT22;25453;48.162;14.510;2023-03-23T14:42:44;21.00;44.10
39777;DHT22;25453;48.162;14.510;2023-03-23T14:45:15;20.90;44.20
39777;DHT22;25453;48.162;14.510;2023-03-23T14:47:46;20.80;44.30
39777;DHT22;25453;48.162;14.510;2023-03-23T14:52:51;20.70;44.30
39777;DHT22;25453;48.162;14.510;2023-03-23T14:57:43;20.70;44.30
39777;DHT22;25453;48.162;14.510;2023-03-23T15:00:30;20.70;44.30
39777;DHT22;25453;48.162;14.510;2023-03-23T15:02:57;20.60;44.30
39777;DHT22;25453;48.162;14.510;2023-03-23T15:05:35;20.60;44.40
39777;DHT22;25453;48.162;14.510;2023-03-23T15:08:14;20.60;44.50
39777;DHT22;25453;48.162;14.510;2023-03-23T15:10:41;20.60;44.60
39777;DHT22;25453;48.162;14.510;2023-03-23T15:13:09;20.60;44.70
39777;DHT22;25453;48.162;14.510;2023-03-23T15:15:37;20.60;44.70
39777;DHT22;25453;48.162;14.510;2023-03-23T15:18:14;20.60;44.70
39777;DHT22;25453;48.162;14.510;2023-03-23T15:20:45;20.50;44.70
39777;DHT22;25453;48.162;14.510;2023-03-23T15:23:16;20.50;44.80
39777;DHT22;25453;48.162;14.510;2023-03-23T15:25:50;20.50;44.80
39777;DHT22;25453;48.162;14.510;2023-03-23T15:28:20;20.40;44.80
39777;DHT22;25453;48.162;14.510;2023-03-23T15:30:54;20.40;44.90
39777;DHT22;25453;48.162;14.510;2023-03-23T15:33:20;20.40;45.00
39777;DHT22;25453;48.162;14.510;2023-03-23T15:35:52;20.30;45.10
39777;DHT22;25453;48.162;14.510;2023-03-23T15:40:52;20.30;45.20
39777;DHT22;25453;48.162;14.510;2023-03-23T15:43:19;20.30;45.30
39777;DHT22;25453;48.162;14.510;2023-03-23T15:45:55;20.20;45.50
39777;DHT22;25453;48.162;14.510;2023-03-23T15:48:22;20.20;45.60
39777;DHT22;25453;48.162;14.510;2023-03-23T15:50:48;20.20;45.70
39777;DHT22;25453;48.162;14.510;2023-03-23T15:53:19;20.10;45.70
39777;DHT22;25453;48.162;14.510;2023-03-23T15:55:46;20.10;45.80
39777;DHT22;25453;48.162;14.510;2023-03-23T15:58:13;20.10;45.90
39777;DHT22;25453;48.162;14.510;2023-03-23T16:00:40;20.10;46.00
39777;DHT22;25453;48.162;14.510;2023-03-23T16:03:10;20.00;46.00
39777;DHT22;25453;48.162;14.510;2023-03-23T16:05:38;20.00;46.10
39777;DHT22;25453;48.162;14.510;2023-03-23T16:08:07;20.00;46.20
39777;DHT22;25453;48.162;14.510;2023-03-23T16:10:34;20.00;46.30
39777;DHT22;25453;48.162;14.510;2023-03-23T16:13:01;19.90;46.30
39777;DHT22;25453;48.162;14.510;2023-03-23T16:15:28;19.90;46.60
39777;DHT22;25453;48.162;14.510;2023-03-23T16:17:55;19.90;46.90
39777;DHT22;25453;48.162;14.510;2023-03-23T16:20:22;19.90;47.00
39777;DHT22;25453;48.162;14.510;2023-03-23T16:22:50;19.80;47.00
39777;DHT22;25453;48.162;14.510;2023-03-23T16:25:17;19.80;47.10
39777;DHT22;25453;48.162;14.510;2023-03-23T16:27:45;19.80;47.30
39777;DHT22;25453;48.162;14.510;2023-03-23T16:30:22;19.80;47.70
39777;DHT22;25453;48.162;14.510;2023-03-23T16:32:49;19.70;48.10
39777;DHT22;25453;48.162;14.510;2023-03-23T16:35:17;19.70;48.10
39777;DHT22;25453;48.162;14.510;2023-03-23T16:37:48;19.60;48.10
39777;DHT22;25453;48.162;14.510;2023-03-23T16:40:16;19.60;48.10
39777;DHT22;25453;48.162;14.510;2023-03-23T16:42:44;19.60;48.20
39777;DHT22;25453;48.162;14.510;2023-03-23T16:45:11;19.50;48.40
39777;DHT22;25453;48.162;14.510;2023-03-23T16:47:39;19.40;48.70
39777;DHT22;25453;48.162;14.510;2023-03-23T16:50:08;19.40;49.10
39777;DHT22;25453;48.162;14.510;2023-03-23T16:52:37;19.30;49.40
39777;DHT22;25453;48.162;14.510;2023-03-23T16:55:12;19.20;49.70
39777;DHT22;25453;48.162;14.510;2023-03-23T16:57:39;19.20;50.00
39777;DHT22;25453;48.162;14.510;2023-03-23T17:00:13;19.10;50.40
39777;DHT22;25453;48.162;14.510;2023-03-23T17:02:41;19.00;50.70
39777;DHT22;25453;48.162;14.510;2023-03-23T17:05:09;19.00;50.80
39777;DHT22;25453;48.162;14.510;2023-03-23T17:07:37;18.90;51.00
39777;DHT22;25453;48.162;14.510;2023-03-23T17:10:05;18.90;51.20
39777;DHT22;25453;48.162;14.510;2023-03-23T17:12:34;18.90;51.40
39777;DHT22;25453;48.162;14.510;2023-03-23T17:15:01;18.80;51.60
39777;DHT22;25453;48.162;14.510;2023-03-23T17:17:29;18.70;51.80
39777;DHT22;25453;48.162;14.510;2023-03-23T17:19:56;18.60;52.00
39777;DHT22;25453;48.162;14.510;2023-03-23T17:22:23;18.60;52.20